Time;durP1;ratioP1;P1;durP2;ratioP2;P2;SDS_P1;SDS_P2;PMS_P1;PMS_P2;Temp;Humidity;BMP_temperature;BMP_pressure;BME280_temperature;BME280_humidity;BME280_pressure;Samples;Min_cycle;Max_cycle;Signal;HPM_P1;HPM_P2
2024/04/20 00:02:02;;;;;;;5.05;0.75;;;;;;;;;;5437056;26;20019;-77
2024/04/20 00:04:27;;;;;;;8.40;1.30;;;;;;;;;;5408128;26;20014;-77
2024/04/20 00:06:53;;;;;;;3.28;1.08;;;;;;;;;;5441616;26;20010;-76
2024/04/20 00:09:18;;;;;;;6.95;1.27;;;;;;;;;;5403087;26;20003;-80
2024/04/20 00:11:44;;;;;;;5.10;1.42;;;;;;;;;;5412511;26;20009;-80
2024/04/20 00:14:09;;;;;;;4.25;0.90;;;;;;;;;;5407833;26;20046;-80
2024/04/20 00:16:35;;;;;;;6.25;1.30;;;;;;;;;;5404301;26;20003;-80
2024/04/20 00:19:00;;;;;;;5.43;1.23;;;;;;;;;;5437148;26;20360;-80
2024/04/20 00:21:26;;;;;;;6.28;1.00;;;;;;;;;;5409355;26;19995;-80
2024/04/20 00:23:51;;;;;;;5.82;1.10;;;;;;;;;;5406004;26;19998;-80
2024/04/20 00:26:20;;;;;;;5.13;1.08;;;;;;;;;;5413609;26;19999;-79
2024/04/20 00:28:46;;;;;;;7.03;1.20;;;;;;;;;;5409105;26;20006;-79
2024/04/20 00:31:11;;;;;;;3.42;1.00;;;;;;;;;;5410361;26;22504;-80
2024/04/20 00:33:37;;;;;;;5.15;0.88;;;;;;;;;;5410925;26;20079;-80
2024/04/20 00:36:02;;;;;;;3.75;1.15;;;;;;;;;;5413916;26;20028;-80
2024/04/20 00:38:28;;;;;;;2.88;0.85;;;;;;;;;;5442985;26;20032;-80
2024/04/20 00:40:54;;;;;;;2.33;0.82;;;;;;;;;;5410111;26;20052;-80
2024/04/20 00:43:20;;;;;;;3.88;0.90;;;;;;;;;;5408500;26;19999;-80
2024/04/20 00:45:45;;;;;;;2.28;0.95;;;;;;;;;;5410806;26;19999;-80
2024/04/20 00:48:11;;;;;;;6.18;0.77;;;;;;;;;;5412615;26;20027;-80
2024/04/20 00:50:40;;;;;;;3.70;0.90;;;;;;;;;;5408888;26;19995;-80
2024/04/20 00:53:13;;;;;;;5.28;1.00;;;;;;;;;;5409493;26;20445;-80
2024/04/20 00:55:41;;;;;;;2.63;0.80;;;;;;;;;;5441809;26;20071;-79
2024/04/20 00:58:09;;;;;;;4.40;1.02;;;;;;;;;;5441347;26;20452;-80
2024/04/20 01:00:40;;;;;;;3.17;0.98;;;;;;;;;;5410632;26;20048;-77
2024/04/20 01:05:41;;;;;;;4.80;1.05;;;;;;;;;;5354819;26;20462;-85
2024/04/20 01:08:10;;;;;;;3.38;0.88;;;;;;;;;;5329945;26;19996;-85
2024/04/20 01:10:36;;;;;;;4.93;0.80;;;;;;;;;;5322503;26;20462;-85
2024/04/20 01:13:23;;;;;;;3.00;1.00;;;;;;;;;;5319336;26;20004;-84
2024/04/20 01:16:14;;;;;;;2.78;1.13;;;;;;;;;;5363735;26;20012;-85
2024/04/20 01:18:55;;;;;;;;;;;;;;;;;;;;;
2024/04/20 01:21:37;;;;;;;;;;;;;;;;;;;;;
2024/04/20 01:24:12;;;;;;;3.78;0.52;;;;;;;;;;5353303;26;20001;-85
2024/04/20 01:26:50;;;;;;;1.30;0.50;;;;;;;;;;5329750;26;20037;-86
2024/04/20 01:29:16;;;;;;;0.52;0.40;;;;;;;;;;5322655;26;20363;-86
2024/04/20 01:31:53;;;;;;;1.05;0.52;;;;;;;;;;5357351;26;20015;-86
2024/04/20 01:34:27;;;;;;;1.67;0.68;;;;;;;;;;5332519;26;20004;-85
2024/04/20 01:37:10;;;;;;;;;;;;;;;;;;;;;
2024/04/20 01:39:44;;;;;;;1.23;0.50;;;;;;;;;;5355921;26;20005;-86
2024/04/20 01:42:24;;;;;;;2.00;0.50;;;;;;;;;;5328773;26;20078;-85
2024/04/20 01:47:54;;;;;;;3.10;0.60;;;;;;;;;;5355951;26;20014;-86
2024/04/20 01:50:46;;;;;;;1.88;0.60;;;;;;;;;;5339616;26;20000;-85
2024/04/20 01:53:22;;;;;;;4.28;0.63;;;;;;;;;;5324742;26;20005;-85
2024/04/20 01:55:51;;;;;;;3.85;0.80;;;;;;;;;;5355023;26;20000;-85
2024/04/20 01:58:16;;;;;;;3.90;0.60;;;;;;;;;;5336215;26;20005;-85
2024/04/20 02:00:54;;;;;;;5.28;0.70;;;;;;;;;;5334598;26;20022;-85
2024/04/20 02:03:28;;;;;;;2.28;0.70;;;;;;;;;;5355558;26;20365;-86
2024/04/20 02:05:56;;;;;;;3.40;0.52;;;;;;;;;;5305244;26;20387;-85
2024/04/20 02:08:21;;;;;;;2.40;0.70;;;;;;;;;;5332846;26;20005;-85
2024/04/20 02:10:47;;;;;;;2.97;0.70;;;;;;;;;;5335389;26;20395;-85
2024/04/20 02:13:12;;;;;;;3.95;0.90;;;;;;;;;;5306058;26;20049;-85
2024/04/20 02:15:38;;;;;;;6.57;0.80;;;;;;;;;;5303827;26;20016;-84
2024/04/20 02:18:04;;;;;;;5.55;0.90;;;;;;;;;;5361419;26;20504;-84
2024/04/20 02:20:29;;;;;;;4.50;0.70;;;;;;;;;;5306272;26;20467;-85
2024/04/20 02:22:54;;;;;;;3.92;0.60;;;;;;;;;;5336444;26;20021;-85
2024/04/20 02:25:20;;;;;;;2.55;0.60;;;;;;;;;;5308218;26;20475;-85
2024/04/20 02:27:53;;;;;;;2.53;0.60;;;;;;;;;;5307661;26;20037;-85
2024/04/20 02:30:19;;;;;;;3.97;0.63;;;;;;;;;;5305196;26;20002;-85
2024/04/20 02:32:45;;;;;;;3.53;0.47;;;;;;;;;;5304209;26;20004;-85
2024/04/20 02:35:10;;;;;;;1.92;0.50;;;;;;;;;;5306248;26;20468;-85
2024/04/20 02:37:37;;;;;;;1.65;0.50;;;;;;;;;;5303959;26;20407;-84
2024/04/20 02:40:03;;;;;;;2.47;0.60;;;;;;;;;;5301304;26;19997;-85
2024/04/20 02:42:29;;;;;;;1.67;0.50;;;;;;;;;;5303361;26;20040;-84
2024/04/20 02:44:55;;;;;;;3.50;0.40;;;;;;;;;;5311576;26;20020;-85
2024/04/20 02:47:20;;;;;;;2.13;0.50;;;;;;;;;;5359301;26;20009;-85
2024/04/20 02:49:46;;;;;;;1.88;0.40;;;;;;;;;;5304402;26;20074;-84
2024/04/20 02:52:11;;;;;;;6.00;0.70;;;;;;;;;;5298554;26;20001;-86
2024/04/20 02:54:37;;;;;;;4.00;0.60;;;;;;;;;;5327291;26;20028;-86
2024/04/20 02:57:03;;;;;;;3.17;0.60;;;;;;;;;;5308368;26;20008;-86
2024/04/20 02:59:29;;;;;;;2.00;0.52;;;;;;;;;;5301861;26;19993;-86
2024/04/20 03:01:54;;;;;;;2.70;0.50;;;;;;;;;;5304708;26;20011;-86
2024/04/20 03:04:23;;;;;;;4.13;0.63;;;;;;;;;;5305317;26;20469;-86
2024/04/20 03:06:48;;;;;;;2.35;0.70;;;;;;;;;;5302330;26;20001;-86
2024/04/20 03:09:16;;;;;;;4.80;0.68;;;;;;;;;;5292264;26;20005;-86
2024/04/20 03:11:42;;;;;;;4.28;0.70;;;;;;;;;;5302352;26;20006;-86
2024/04/20 03:14:08;;;;;;;2.60;0.63;;;;;;;;;;5298769;26;20471;-87
2024/04/20 03:16:35;;;;;;;4.13;0.90;;;;;;;;;;5295566;26;19997;-85
2024/04/20 03:19:01;;;;;;;5.15;1.00;;;;;;;;;;5332608;26;19998;-85
2024/04/20 03:21:32;;;;;;;9.80;1.70;;;;;;;;;;5304019;26;20092;-86
2024/04/20 03:24:00;;;;;;;5.03;1.20;;;;;;;;;;5302037;26;20009;-86
2024/04/20 03:26:31;;;;;;;4.82;1.02;;;;;;;;;;5335307;26;20049;-87
2024/04/20 03:29:07;;;;;;;8.40;1.42;;;;;;;;;;5329661;26;20005;-87
2024/04/20 03:31:37;;;;;;;6.00;1.02;;;;;;;;;;5304094;26;19997;-86
2024/04/20 03:34:08;;;;;;;6.82;1.20;;;;;;;;;;5295766;26;20001;-86
2024/04/20 03:36:42;;;;;;;6.65;1.10;;;;;;;;;;5300598;26;20538;-87
2024/04/20 03:39:24;;;;;;;5.35;0.90;;;;;;;;;;5305727;26;20341;-86
2024/04/20 03:41:52;;;;;;;4.93;0.93;;;;;;;;;;5299636;26;20020;-86
2024/04/20 03:44:21;;;;;;;6.63;0.90;;;;;;;;;;5304731;26;20521;-86
2024/04/20 03:46:50;;;;;;;5.75;1.02;;;;;;;;;;5298523;26;20023;-86
2024/04/20 03:49:54;;;;;;;5.53;0.90;;;;;;;;;;5305442;26;20046;-86
2024/04/20 03:52:32;;;;;;;6.32;1.10;;;;;;;;;;5328534;26;20009;-87
2024/04/20 03:55:03;;;;;;;4.20;0.98;;;;;;;;;;5301618;26;20012;-87
2024/04/20 03:57:37;;;;;;;5.88;1.20;;;;;;;;;;5360522;26;20333;-87
2024/04/20 04:00:05;;;;;;;4.55;1.10;;;;;;;;;;5306571;26;20017;-87
2024/04/20 04:02:35;;;;;;;3.83;0.88;;;;;;;;;;5308046;26;20017;-87
2024/04/20 04:05:18;;;;;;;;;;;;;;;;;;;;;
2024/04/20 04:07:50;;;;;;;5.10;1.23;;;;;;;;;;5337359;26;19997;-87
2024/04/20 04:10:28;;;;;;;4.40;0.90;;;;;;;;;;5306390;26;20005;-85
2024/04/20 04:13:03;;;;;;;4.85;1.02;;;;;;;;;;5335040;26;20071;-86
2024/04/20 04:15:34;;;;;;;3.70;0.90;;;;;;;;;;5304870;26;20059;-87
2024/04/20 04:18:00;;;;;;;3.85;1.13;;;;;;;;;;5338930;26;20044;-87
2024/04/20 04:20:25;;;;;;;5.68;1.10;;;;;;;;;;5306199;26;20079;-85
2024/04/20 04:22:51;;;;;;;7.85;1.13;;;;;;;;;;5334721;26;20037;-87
2024/04/20 04:25:16;;;;;;;10.65;1.60;;;;;;;;;;5307534;26;20021;-87
2024/04/20 04:27:42;;;;;;;9.18;1.70;;;;;;;;;;5304611;26;20008;-87
2024/04/20 04:30:10;;;;;;;8.93;1.40;;;;;;;;;;5306133;26;20006;-87
2024/04/20 04:32:39;;;;;;;8.63;1.58;;;;;;;;;;5304408;26;20001;-88
2024/04/20 04:35:05;;;;;;;9.98;1.80;;;;;;;;;;5308551;26;20009;-87
2024/04/20 04:37:35;;;;;;;11.43;1.83;;;;;;;;;;5307760;26;20482;-82
2024/04/20 04:40:01;;;;;;;7.88;1.38;;;;;;;;;;5304451;26;20005;-81
2024/04/20 04:42:34;;;;;;;7.70;1.40;;;;;;;;;;5334172;26;20016;-80
2024/04/20 04:45:02;;;;;;;9.77;1.70;;;;;;;;;;5292831;26;20000;-81
2024/04/20 04:47:30;;;;;;;10.45;1.38;;;;;;;;;;5302039;26;19997;-80
2024/04/20 04:49:56;;;;;;;10.65;1.40;;;;;;;;;;5301618;26;20011;-81
2024/04/20 04:52:27;;;;;;;8.55;1.75;;;;;;;;;;5306404;26;20013;-80
2024/04/20 04:55:11;;;;;;;5.20;1.13;;;;;;;;;;5308377;26;20122;-80
2024/04/20 04:57:50;;;;;;;7.97;1.23;;;;;;;;;;5306307;26;19998;-80
2024/04/20 05:00:16;;;;;;;7.93;1.50;;;;;;;;;;5334869;26;20016;-80
2024/04/20 05:02:41;;;;;;;9.07;1.30;;;;;;;;;;5334233;26;20029;-80
2024/04/20 05:05:19;;;;;;;7.80;1.20;;;;;;;;;;5339069;26;20040;-82
2024/04/20 05:07:47;;;;;;;10.43;1.60;;;;;;;;;;5333506;26;20010;-80
2024/04/20 05:10:37;;;;;;;12.25;1.60;;;;;;;;;;5306910;26;20469;-81
2024/04/20 05:13:10;;;;;;;6.85;1.20;;;;;;;;;;5296954;26;19997;-82
2024/04/20 05:16:11;;;;;;;7.18;1.20;;;;;;;;;;5301480;26;20024;-80
2024/04/20 05:19:08;;;;;;;11.55;1.80;;;;;;;;;;5334618;26;20078;-82
2024/04/20 05:21:38;;;;;;;12.25;1.52;;;;;;;;;;5337390;26;20033;-82
2024/04/20 05:24:17;;;;;;;7.53;1.50;;;;;;;;;;5299407;26;20505;-80
2024/04/20 05:26:52;;;;;;;7.55;1.15;;;;;;;;;;5307417;26;20001;-81
2024/04/20 05:29:18;;;;;;;8.43;1.15;;;;;;;;;;5307591;26;20001;-80
2024/04/20 05:31:49;;;;;;;9.55;1.50;;;;;;;;;;5308376;26;20015;-80
2024/04/20 05:34:25;;;;;;;9.05;1.73;;;;;;;;;;5303317;26;20012;-81
2024/04/20 05:37:11;;;;;;;5.40;1.13;;;;;;;;;;5296576;26;20008;-80
2024/04/20 05:39:40;;;;;;;8.90;1.20;;;;;;;;;;5305479;26;20005;-80
2024/04/20 05:42:36;;;;;;;6.53;1.65;;;;;;;;;;5333904;26;20038;-81
2024/04/20 05:45:11;;;;;;;6.78;1.42;;;;;;;;;;5335244;26;20105;-81
2024/04/20 05:47:42;;;;;;;6.22;1.40;;;;;;;;;;5301339;26;20341;-80
2024/04/20 05:50:15;;;;;;;5.75;0.98;;;;;;;;;;5366512;26;20005;-80
2024/04/20 05:52:41;;;;;;;;;;;;;;;;;;5329334;26;20112;-80
2024/04/20 05:55:22;;;;;;;5.53;1.35;;;;;;;;;;5365463;26;20353;-83
2024/04/20 05:58:16;;;;;;;8.13;1.30;;;;;;;;;;5334251;26;20012;-82
2024/04/20 06:00:47;;;;;;;5.65;0.88;;;;;;;;;;5298163;26;20464;-81
2024/04/20 06:03:19;;;;;;;5.65;1.00;;;;;;;;;;5306528;26;20002;-81
2024/04/20 06:05:48;;;;;;;8.75;1.25;;;;;;;;;;5331977;26;20015;-81
2024/04/20 06:08:29;;;;;;;8.45;1.08;;;;;;;;;;5276674;26;20012;-81
2024/04/20 06:11:00;;;;;;;9.05;1.17;;;;;;;;;;5307039;26;20055;-82
2024/04/20 06:16:48;;;;;;;9.75;1.55;;;;;;;;;;5309043;26;20001;-81
2024/04/20 06:19:19;;;;;;;7.70;1.15;;;;;;;;;;5300586;26;19997;-81
2024/04/20 06:22:23;;;;;;;5.82;1.10;;;;;;;;;;5331935;26;20012;-83
2024/04/20 06:24:57;;;;;;;12.60;1.42;;;;;;;;;;5302562;26;20400;-81
2024/04/20 06:27:23;;;;;;;6.63;1.00;;;;;;;;;;5303448;26;20000;-83
2024/04/20 06:29:49;;;;;;;10.10;1.30;;;;;;;;;;5299336;26;20075;-80
2024/04/20 06:32:18;;;;;;;5.75;1.13;;;;;;;;;;5294520;26;20020;-81
2024/04/20 06:34:44;;;;;;;8.45;1.23;;;;;;;;;;5335000;26;20019;-82
2024/04/20 06:37:14;;;;;;;8.20;1.15;;;;;;;;;;5330549;26;20029;-81
2024/04/20 06:42:54;;;;;;;7.70;1.20;;;;;;;;;;5329989;26;20020;-81
2024/04/20 06:45:20;;;;;;;8.50;1.30;;;;;;;;;;5362153;26;20111;-81
2024/04/20 06:47:57;;;;;;;9.45;1.00;;;;;;;;;;5300970;26;20020;-81
2024/04/20 06:50:23;;;;;;;7.55;1.25;;;;;;;;;;5304858;26;20513;-87
2024/04/20 06:52:53;;;;;;;4.32;1.00;;;;;;;;;;5333954;26;20013;-88
2024/04/20 06:55:28;;;;;;;7.45;1.17;;;;;;;;;;5303719;26;20019;-88
2024/04/20 06:57:59;;;;;;;9.35;1.20;;;;;;;;;;5352856;26;20079;-86
2024/04/20 07:00:28;;;;;;;8.18;1.20;;;;;;;;;;5291201;26;20000;-86
2024/04/20 07:03:07;;;;;;;8.10;1.17;;;;;;;;;;5304554;26;20360;-86
2024/04/20 07:05:34;;;;;;;6.85;1.00;;;;;;;;;;5301392;26;19997;-85
2024/04/20 07:08:06;;;;;;;6.93;1.55;;;;;;;;;;5360120;26;20056;-85
2024/04/20 07:10:59;;;;;;;9.27;1.23;;;;;;;;;;5339118;26;20029;-86
2024/04/20 07:13:36;;;;;;;9.95;1.60;;;;;;;;;;5312342;26;20009;-86
2024/04/20 07:16:02;;;;;;;6.20;1.13;;;;;;;;;;5349899;26;20001;-85
2024/04/20 07:18:52;;;;;;;8.55;1.27;;;;;;;;;;5308648;26;20023;-86
2024/04/20 07:22:15;;;;;;;6.97;1.02;;;;;;;;;;5354438;26;20016;-86
2024/04/20 07:24:41;;;;;;;5.22;0.85;;;;;;;;;;5287442;26;20509;-85
2024/04/20 07:27:06;;;;;;;8.50;1.17;;;;;;;;;;5306558;26;20020;-86
2024/04/20 07:29:38;;;;;;;8.43;1.33;;;;;;;;;;5307223;26;20005;-86
2024/04/20 07:32:07;;;;;;;5.78;1.30;;;;;;;;;;5289839;27;20006;-85
2024/04/20 07:34:41;;;;;;;5.07;0.80;;;;;;;;;;5303020;26;20460;-86
2024/04/20 07:37:07;;;;;;;6.25;0.90;;;;;;;;;;5330147;26;20515;-86
2024/04/20 07:39:37;;;;;;;5.60;0.85;;;;;;;;;;5305957;26;19997;-85
2024/04/20 07:42:06;;;;;;;6.03;0.80;;;;;;;;;;5341892;26;20470;-85
2024/04/20 07:44:34;;;;;;;4.45;0.90;;;;;;;;;;5302394;26;20453;-85
2024/04/20 07:47:02;;;;;;;5.30;0.80;;;;;;;;;;5307293;26;20344;-86
2024/04/20 07:49:28;;;;;;;3.63;0.52;;;;;;;;;;5298576;26;20042;-85
2024/04/20 07:51:54;;;;;;;3.60;0.63;;;;;;;;;;5307284;26;20029;-85
2024/04/20 07:54:20;;;;;;;6.18;1.00;;;;;;;;;;5312158;26;20000;-85
2024/04/20 07:57:00;;;;;;;4.70;0.82;;;;;;;;;;5311327;26;20080;-85
2024/04/20 07:59:31;;;;;;;6.03;1.60;;;;;;;;;;5306732;26;20103;-85
2024/04/20 08:02:10;;;;;;;;;;;;;;;;;;;;;
2024/04/20 08:04:52;;;;;;;5.80;0.90;;;;;;;;;;5338179;26;20001;-85
2024/04/20 08:07:36;;;;;;;3.85;0.73;;;;;;;;;;5269717;26;20382;-85
2024/04/20 08:10:02;;;;;;;8.15;1.38;;;;;;;;;;5309531;27;20013;-85
2024/04/20 08:12:31;;;;;;;8.85;1.60;;;;;;;;;;5272545;27;20005;-85
2024/04/20 08:15:13;;;;;;;7.80;1.20;;;;;;;;;;5270658;27;20124;-87
2024/04/20 08:17:45;;;;;;;7.22;1.17;;;;;;;;;;5256288;27;20335;-86
2024/04/20 08:20:22;;;;;;;4.85;0.98;;;;;;;;;;5276727;27;20083;-86
2024/04/20 08:25:44;;;;;;;7.43;1.23;;;;;;;;;;5307223;27;20016;-86
2024/04/20 08:28:21;;;;;;;5.80;0.93;;;;;;;;;;5280133;27;20769;-85
2024/04/20 08:30:55;;;;;;;10.98;1.73;;;;;;;;;;5270591;27;20002;-86
2024/04/20 08:33:24;;;;;;;6.30;1.60;;;;;;;;;;5277921;27;20353;-85
2024/04/20 08:35:51;;;;;;;9.07;1.23;;;;;;;;;;5283641;27;20449;-85
2024/04/20 08:38:20;;;;;;;8.43;1.08;;;;;;;;;;5270062;27;20079;-86
2024/04/20 08:41:28;;;;;;;;;;;;;;;;;;;;;
2024/04/20 08:44:10;;;;;;;7.32;1.83;;;;;;;;;;5265383;27;20461;-85
2024/04/20 08:47:28;;;;;;;6.25;1.10;;;;;;;;;;5312933;27;20001;-86
2024/04/20 08:50:03;;;;;;;8.98;1.00;;;;;;;;;;5242645;27;20090;-85
2024/04/20 08:53:07;;;;;;;7.38;1.00;;;;;;;;;;5245672;27;20403;-85
2024/04/20 08:55:35;;;;;;;;;;;;;;;;;;5204256;27;20342;-85
2024/04/20 08:58:29;;;;;;;5.18;1.10;;;;;;;;;;5241330;27;20025;-86
2024/04/20 09:01:03;;;;;;;6.18;1.23;;;;;;;;;;5233504;27;19999;-84
2024/04/20 09:03:32;;;;;;;9.18;1.10;;;;;;;;;;5226252;27;20007;-85
2024/04/20 09:06:01;;;;;;;5.43;1.20;;;;;;;;;;5215481;27;20009;-84
2024/04/20 09:08:31;;;;;;;6.00;0.70;;;;;;;;;;5208572;27;20136;-85
2024/04/20 09:14:08;;;;;;;4.60;0.95;;;;;;;;;;5236979;27;20010;-84
2024/04/20 09:16:46;;;;;;;5.47;0.85;;;;;;;;;;5213864;27;19999;-85
2024/04/20 09:19:15;;;;;;;8.38;0.93;;;;;;;;;;5242886;27;19999;-84
2024/04/20 09:21:50;;;;;;;5.80;0.85;;;;;;;;;;5267109;27;20002;-85
2024/04/20 09:24:19;;;;;;;4.43;0.60;;;;;;;;;;5258128;27;20461;-83
2024/04/20 09:26:50;;;;;;;5.45;0.82;;;;;;;;;;5269031;27;20035;-85
2024/04/20 09:29:16;;;;;;;2.97;0.70;;;;;;;;;;5270611;27;20002;-86
2024/04/20 09:31:54;;;;;;;9.23;1.38;;;;;;;;;;5277550;27;20056;-83
2024/04/20 09:34:36;;;;;;;7.78;1.40;;;;;;;;;;5304373;27;20012;-82
2024/04/20 09:37:01;;;;;;;4.00;0.80;;;;;;;;;;5277507;27;20453;-82
2024/04/20 09:39:27;;;;;;;3.58;0.70;;;;;;;;;;5259725;27;20021;-82
2024/04/20 09:41:55;;;;;;;4.45;0.82;;;;;;;;;;5264178;27;20003;-81
2024/04/20 09:44:26;;;;;;;4.30;0.63;;;;;;;;;;5268880;27;20016;-81
2024/04/20 09:46:55;;;;;;;4.32;0.80;;;;;;;;;;5301716;27;20442;-81
2024/04/20 09:49:28;;;;;;;7.03;1.75;;;;;;;;;;5264270;27;20052;-83
2024/04/20 09:52:16;;;;;;;7.63;1.13;;;;;;;;;;5266938;27;20343;-82
2024/04/20 09:55:08;;;;;;;6.13;1.20;;;;;;;;;;5276078;27;20006;-83
2024/04/20 09:57:40;;;;;;;8.10;0.95;;;;;;;;;;5267342;27;20002;-82
2024/04/20 10:00:08;;;;;;;4.90;0.90;;;;;;;;;;5272039;27;20005;-82
2024/04/20 10:02:42;;;;;;;4.18;0.88;;;;;;;;;;5322546;26;20062;-82
2024/04/20 10:05:10;;;;;;;4.35;0.65;;;;;;;;;;5278049;26;20008;-82
2024/04/20 10:07:38;;;;;;;3.17;0.68;;;;;;;;;;5270247;27;20022;-86
2024/04/20 10:10:25;;;;;;;2.78;0.50;;;;;;;;;;5292545;27;20016;-82
2024/04/20 10:12:52;;;;;;;3.78;0.40;;;;;;;;;;5279171;27;20072;-82
2024/04/20 10:15:18;;;;;;;2.55;0.55;;;;;;;;;;5270709;27;20005;-82
2024/04/20 10:17:43;;;;;;;2.30;0.40;;;;;;;;;;5306811;27;20002;-81
2024/04/20 10:20:11;;;;;;;5.60;1.05;;;;;;;;;;5260201;27;20020;-82
2024/04/20 10:22:40;;;;;;;6.85;0.80;;;;;;;;;;5250596;27;20076;-85
2024/04/20 10:25:12;;;;;;;6.72;1.00;;;;;;;;;;5280016;27;20411;-85
2024/04/20 10:27:39;;;;;;;5.82;0.82;;;;;;;;;;5276084;27;19999;-84
2024/04/20 10:30:20;;;;;;;6.28;0.90;;;;;;;;;;5281507;27;20016;-84
2024/04/20 10:32:51;;;;;;;7.78;0.90;;;;;;;;;;5282039;27;20021;-85
2024/04/20 10:35:20;;;;;;;6.47;1.00;;;;;;;;;;5278384;27;20033;-85
2024/04/20 10:38:03;;;;;;;7.70;1.30;;;;;;;;;;5280117;27;20020;-84
2024/04/20 10:40:33;;;;;;;8.95;1.23;;;;;;;;;;5277388;27;20002;-85
2024/04/20 10:43:12;;;;;;;9.48;1.08;;;;;;;;;;5275323;27;20002;-85
2024/04/20 10:45:43;;;;;;;7.53;1.15;;;;;;;;;;5280426;27;20373;-84
2024/04/20 10:48:18;;;;;;;8.98;0.98;;;;;;;;;;5280138;27;20017;-88
2024/04/20 10:50:45;;;;;;;9.48;1.42;;;;;;;;;;5300601;27;20005;-88
2024/04/20 10:53:13;;;;;;;5.05;0.95;;;;;;;;;;5269827;27;20033;-88
2024/04/20 10:55:42;;;;;;;7.55;1.20;;;;;;;;;;5292129;26;19994;-88
2024/04/20 10:58:11;;;;;;;7.38;1.00;;;;;;;;;;5259540;27;20001;-88
2024/04/20 11:00:39;;;;;;;5.90;0.90;;;;;;;;;;5261098;27;20009;-87
2024/04/20 11:03:11;;;;;;;5.47;1.00;;;;;;;;;;5267370;27;20001;-88
2024/04/20 11:05:36;;;;;;;8.65;1.30;;;;;;;;;;5273614;26;20001;-87
2024/04/20 11:08:04;;;;;;;6.55;1.10;;;;;;;;;;5275634;27;19997;-87
2024/04/20 11:10:30;;;;;;;6.72;0.88;;;;;;;;;;5264621;27;20013;-87
2024/04/20 11:13:03;;;;;;;4.72;0.73;;;;;;;;;;5259240;27;20002;-86
2024/04/20 11:15:31;;;;;;;5.72;0.80;;;;;;;;;;5268925;27;20527;-87
2024/04/20 11:17:58;;;;;;;4.40;0.70;;;;;;;;;;5299903;27;20015;-87
2024/04/20 11:20:23;;;;;;;4.38;0.80;;;;;;;;;;5260257;27;20017;-87
2024/04/20 11:22:51;;;;;;;6.03;1.08;;;;;;;;;;5267407;27;20009;-86
2024/04/20 11:25:17;;;;;;;3.95;0.80;;;;;;;;;;5273306;27;20001;-88
2024/04/20 11:27:49;;;;;;;2.42;0.45;;;;;;;;;;5272048;27;20002;-86
2024/04/20 11:30:14;;;;;;;3.65;0.88;;;;;;;;;;5255525;27;20009;-87
2024/04/20 11:32:40;;;;;;;5.10;1.15;;;;;;;;;;5262583;27;20473;-87
2024/04/20 11:35:21;;;;;;;7.25;1.00;;;;;;;;;;5331908;26;19994;-87
2024/04/20 11:37:46;;;;;;;5.40;0.70;;;;;;;;;;5268347;27;20022;-87
2024/04/20 11:40:12;;;;;;;4.03;1.10;;;;;;;;;;5263211;27;20037;-87
2024/04/20 11:42:42;;;;;;;5.53;0.82;;;;;;;;;;5276635;27;20454;-87
2024/04/20 11:45:15;;;;;;;6.15;0.70;;;;;;;;;;5266028;27;20038;-88
2024/04/20 11:47:43;;;;;;;6.55;0.85;;;;;;;;;;5267675;27;20021;-86
2024/04/20 11:50:17;;;;;;;5.40;1.25;;;;;;;;;;5294463;27;20353;-86
2024/04/20 11:55:44;;;;;;;3.67;0.73;;;;;;;;;;5297175;27;20065;-88
2024/04/20 11:58:12;;;;;;;4.53;1.00;;;;;;;;;;5266716;27;20005;-84
2024/04/20 12:00:38;;;;;;;6.50;0.82;;;;;;;;;;5277527;27;20047;-86
2024/04/20 12:03:10;;;;;;;4.85;0.90;;;;;;;;;;5267830;27;20014;-84
2024/04/20 12:05:35;;;;;;;5.55;0.90;;;;;;;;;;5274634;26;19997;-83
2024/04/20 12:08:01;;;;;;;6.50;1.08;;;;;;;;;;5269822;27;20369;-84
2024/04/20 12:10:26;;;;;;;4.97;1.05;;;;;;;;;;5256806;27;20006;-84
2024/04/20 12:12:52;;;;;;;7.68;1.15;;;;;;;;;;5268409;27;19998;-84
2024/04/20 12:15:20;;;;;;;4.70;1.20;;;;;;;;;;5297104;27;20002;-84
2024/04/20 12:17:45;;;;;;;6.97;1.30;;;;;;;;;;5287415;27;20006;-83
2024/04/20 12:20:11;;;;;;;9.98;1.20;;;;;;;;;;5273470;27;20137;-84
2024/04/20 12:22:41;;;;;;;4.68;0.90;;;;;;;;;;5271326;27;20008;-83
2024/04/20 12:25:18;;;;;;;3.70;0.80;;;;;;;;;;5272539;27;20524;-84
2024/04/20 12:27:46;;;;;;;3.42;0.50;;;;;;;;;;5267078;27;20016;-84
2024/04/20 12:30:12;;;;;;;2.35;0.60;;;;;;;;;;5263864;27;20012;-83
2024/04/20 12:32:37;;;;;;;2.67;0.63;;;;;;;;;;5270955;27;20368;-84
2024/04/20 12:35:03;;;;;;;1.02;0.40;;;;;;;;;;5280366;27;20001;-84
2024/04/20 12:37:29;;;;;;;2.70;0.60;;;;;;;;;;5274558;27;20009;-85
2024/04/20 12:39:57;;;;;;;3.20;0.60;;;;;;;;;;5267041;27;20006;-83
2024/04/20 12:42:29;;;;;;;2.38;0.60;;;;;;;;;;5267151;27;19994;-83
2024/04/20 12:45:00;;;;;;;3.97;0.60;;;;;;;;;;5276806;27;19998;-84
2024/04/20 12:47:26;;;;;;;2.50;0.77;;;;;;;;;;5267666;27;20233;-84
2024/04/20 12:49:52;;;;;;;4.93;0.90;;;;;;;;;;5273870;27;20001;-83
2024/04/20 12:53:01;;;;;;;6.90;0.90;;;;;;;;;;5272187;27;20081;-83
2024/04/20 12:55:57;;;;;;;5.25;1.27;;;;;;;;;;5294714;27;20014;-83
2024/04/20 12:58:29;;;;;;;6.05;1.00;;;;;;;;;;5291394;26;19997;-84
2024/04/20 13:01:05;;;;;;;;;;;;;;;;;;;;;
2024/04/20 13:03:39;;;;;;;4.57;0.98;;;;;;;;;;5307958;27;20020;-82
2024/04/20 13:06:12;;;;;;;6.18;0.90;;;;;;;;;;5287305;26;20008;-83
2024/04/20 13:08:38;;;;;;;;;;;;;;;;;;5306157;26;19997;-81
2024/04/20 13:11:41;;;;;;;;;;;;;;;;;;;;;
2024/04/20 13:14:47;;;;;;;7.10;1.35;;;;;;;;;;5333651;26;20009;-81
2024/04/20 13:17:41;;;;;;;6.85;0.98;;;;;;;;;;5346489;26;20008;-81
2024/04/20 13:20:09;;;;;;;;;;;;;;;;;;5308788;26;20008;-86
2024/04/20 13:23:21;;;;;;;6.03;0.90;;;;;;;;;;5301848;26;19937;-88
2024/04/20 13:26:23;;;;;;;;;;;;;;;;;;;;;
2024/04/20 13:28:54;;;;;;;7.22;1.38;;;;;;;;;;5323077;26;20004;-84
2024/04/20 13:35:21;;;;;;;;;;;;;;;;;;;;;
2024/04/20 13:41:46;;;;;;;;;;;;;;;;;;;;;
2024/04/20 13:44:21;;;;;;;6.45;1.00;;;;;;;;;;5325655;26;19997;-83
2024/04/20 13:50:13;;;;;;;;;;;;;;;;;;;;;
2024/04/20 13:53:31;;;;;;;8.48;1.02;;;;;;;;;;5332102;26;20016;-81
2024/04/20 13:56:22;;;;;;;4.88;1.02;;;;;;;;;;5278051;26;20091;-82
2024/04/20 13:58:48;;;;;;;5.22;1.25;;;;;;;;;;5321798;26;20051;-81
2024/04/20 14:01:57;;;;;;;4.43;0.90;;;;;;;;;;5311533;26;20368;-82
2024/04/20 14:04:23;;;;;;;6.10;0.93;;;;;;;;;;5255849;26;20016;-82
2024/04/20 14:10:22;;;;;;;4.13;0.88;;;;;;;;;;5209377;27;20004;-82
2024/04/20 14:12:48;;;;;;;2.75;0.80;;;;;;;;;;5229149;27;20010;-81
2024/04/20 14:15:13;;;;;;;4.97;1.08;;;;;;;;;;5164349;27;20195;-81
2024/04/20 14:17:51;;;;;;;4.15;1.00;;;;;;;;;;5203192;27;20011;-80
2024/04/20 14:20:20;;;;;;;8.50;1.70;;;;;;;;;;5198583;27;20039;-81
2024/04/20 14:22:48;;;;;;;4.65;1.20;;;;;;;;;;5290498;26;20088;-83
2024/04/20 14:25:14;;;;;;;4.60;0.80;;;;;;;;;;5335758;26;20021;-81
2024/04/20 14:27:59;;;;;;;3.13;0.90;;;;;;;;;;5304139;26;20051;-81
2024/04/20 14:30:27;;;;;;;3.83;0.93;;;;;;;;;;5342475;26;19998;-81
2024/04/20 14:32:53;;;;;;;5.20;0.90;;;;;;;;;;5295425;26;20015;-82
2024/04/20 14:35:19;;;;;;;6.45;1.13;;;;;;;;;;5308960;26;20004;-82
2024/04/20 14:37:46;;;;;;;5.90;0.90;;;;;;;;;;5310998;26;20036;-81
2024/04/20 14:40:12;;;;;;;6.40;1.00;;;;;;;;;;5301147;26;20021;-78
2024/04/20 14:42:38;;;;;;;7.00;1.38;;;;;;;;;;5308089;27;20010;-78
2024/04/20 14:45:04;;;;;;;3.92;1.10;;;;;;;;;;5312824;26;20016;-79
2024/04/20 14:47:32;;;;;;;4.95;0.98;;;;;;;;;;5297634;26;20084;-80
2024/04/20 14:49:58;;;;;;;2.70;0.80;;;;;;;;;;5297707;26;20005;-79
2024/04/20 14:52:29;;;;;;;2.75;0.50;;;;;;;;;;5310899;26;20321;-80
2024/04/20 14:55:01;;;;;;;3.28;0.82;;;;;;;;;;5297780;26;20015;-80
2024/04/20 14:57:26;;;;;;;2.13;0.70;;;;;;;;;;5300640;26;20330;-80
2024/04/20 15:00:13;;;;;;;2.15;0.60;;;;;;;;;;5300808;26;20004;-80
2024/04/20 15:03:29;;;;;;;1.10;0.55;;;;;;;;;;5271641;27;20425;-81
2024/04/20 15:06:07;;;;;;;;;;;;;;;;;;;;;
2024/04/20 15:08:59;;;;;;;2.60;0.65;;;;;;;;;;5341495;26;21149;-82
2024/04/20 15:11:31;;;;;;;2.75;0.60;;;;;;;;;;5306477;26;20002;-82
2024/04/20 15:13:59;;;;;;;4.30;1.10;;;;;;;;;;5301616;26;20014;-80
2024/04/20 15:16:28;;;;;;;5.00;0.90;;;;;;;;;;5310088;26;20009;-80
2024/04/20 15:18:54;;;;;;;1.77;0.80;;;;;;;;;;5307277;26;20004;-81
2024/04/20 15:21:37;;;;;;;6.70;1.10;;;;;;;;;;5306756;26;19994;-82
2024/04/20 15:24:09;;;;;;;;;;;;;;;;;;5304260;26;20014;-81
2024/04/20 15:27:12;;;;;;;3.08;1.17;;;;;;;;;;5317409;26;19934;-82
2024/04/20 15:30:43;;;;;;;4.55;0.82;;;;;;;;;;5293505;26;20071;-86
2024/04/20 15:33:39;;;;;;;3.75;1.10;;;;;;;;;;5255010;26;20036;-81
2024/04/20 15:40:13;;;;;;;;;;;;;;;;;;;;;
2024/04/20 15:45:59;;;;;;;1.98;0.40;;;;;;;;;;5297443;26;19997;-80
2024/04/20 15:52:40;;;;;;;;;;;;;;;;;;;;;
2024/04/20 15:55:18;;;;;;;2.60;0.70;;;;;;;;;;5295341;26;20013;-83
2024/04/20 15:58:09;;;;;;;3.10;0.90;;;;;;;;;;5324716;26;20012;-86
2024/04/20 16:00:36;;;;;;;3.40;0.80;;;;;;;;;;5293393;26;20032;-86
2024/04/20 16:06:51;;;;;;;3.03;0.70;;;;;;;;;;5272132;27;20334;-86
2024/04/20 16:09:25;;;;;;;2.67;0.70;;;;;;;;;;5212534;27;20007;-86
2024/04/20 16:11:53;;;;;;;2.60;0.80;;;;;;;;;;5284748;27;20084;-86
2024/04/20 16:14:20;;;;;;;3.85;0.90;;;;;;;;;;5278179;27;20015;-86
2024/04/20 16:16:52;;;;;;;3.60;0.70;;;;;;;;;;5280019;27;20497;-84
2024/04/20 16:19:27;;;;;;;4.70;0.90;;;;;;;;;;5270446;27;20466;-85
2024/04/20 16:21:59;;;;;;;5.10;1.10;;;;;;;;;;5267761;27;20134;-83
2024/04/20 16:24:25;;;;;;;6.72;1.00;;;;;;;;;;5261316;27;19994;-85